sensor_id;sensor_type;location;lat;lon;timestamp;pressure;altitude;pressure_sealevel;temperature;humidity
64292;BME280;50628;51.008;13.658;2023-02-20T00:02:43;100409.13;;;2.84;100.00
64292;BME280;50628;51.008;13.658;2023-02-20T00:07:45;100409.28;;;2.79;100.00
64292;BME280;50628;51.008;13.658;2023-02-20T00:12:49;100414.22;;;2.38;100.00
64292;BME280;50628;51.008;13.658;2023-02-20T00:17:51;100426.31;;;2.11;100.00
64292;BME280;50628;51.008;13.658;2023-02-20T00:22:54;100415.97;;;2.14;100.00
64292;BME280;50628;51.008;13.658;2023-02-20T00:27:57;100410.47;;;2.24;100.00
64292;BME280;50628;51.008;13.658;2023-02-20T00:32:59;100411.59;;;2.64;100.00
64292;BME280;50628;51.008;13.658;2023-02-20T00:38:01;100388.53;;;2.38;100.00
64292;BME280;50628;51.008;13.658;2023-02-20T00:43:04;100385.66;;;2.48;100.00
64292;BME280;50628;51.008;13.658;2023-02-20T00:48:08;100377.13;;;2.69;100.00
64292;BME280;50628;51.008;13.658;2023-02-20T00:53:10;100386.06;;;2.83;100.00
64292;BME280;50628;51.008;13.658;2023-02-20T00:58:13;100377.66;;;3.43;100.00
64292;BME280;50628;51.008;13.658;2023-02-20T01:03:15;100373.09;;;3.71;100.00
64292;BME280;50628;51.008;13.658;2023-02-20T01:08:17;100364.25;;;3.97;100.00
64292;BME280;50628;51.008;13.658;2023-02-20T01:13:20;100352.44;;;4.11;100.00
64292;BME280;50628;51.008;13.658;2023-02-20T01:18:22;100367.69;;;3.77;100.00
64292;BME280;50628;51.008;13.658;2023-02-20T01:23:25;100359.88;;;4.18;100.00
64292;BME280;50628;51.008;13.658;2023-02-20T01:28:29;100342.03;;;4.33;100.00
64292;BME280;50628;51.008;13.658;2023-02-20T01:33:30;100335.81;;;4.38;100.00
64292;BME280;50628;51.008;13.658;2023-02-20T01:38:32;100328.34;;;3.94;100.00
64292;BME280;50628;51.008;13.658;2023-02-20T01:43:38;100332.47;;;3.57;100.00
64292;BME280;50628;51.008;13.658;2023-02-20T01:48:40;100327.66;;;3.29;100.00
64292;BME280;50628;51.008;13.658;2023-02-20T01:53:42;100324.25;;;3.28;100.00
64292;BME280;50628;51.008;13.658;2023-02-20T01:58:47;100321.09;;;3.42;100.00
64292;BME280;50628;51.008;13.658;2023-02-20T02:03:55;100326.34;;;3.80;100.00
64292;BME280;50628;51.008;13.658;2023-02-20T02:09:04;100325.56;;;4.17;100.00
64292;BME280;50628;51.008;13.658;2023-02-20T02:14:10;100311.72;;;4.39;100.00
64292;BME280;50628;51.008;13.658;2023-02-20T02:19:32;100311.59;;;4.42;100.00
64292;BME280;50628;51.008;13.658;2023-02-20T02:25:00;100310.81;;;4.59;100.00
64292;BME280;50628;51.008;13.658;2023-02-20T02:30:36;100311.22;;;4.86;100.00
64292;BME280;50628;51.008;13.658;2023-02-20T02:36:16;100295.47;;;4.92;100.00
64292;BME280;50628;51.008;13.658;2023-02-20T02:41:22;100287.59;;;4.95;100.00
64292;BME280;50628;51.008;13.658;2023-02-20T02:46:34;100297.97;;;5.11;100.00
64292;BME280;50628;51.008;13.658;2023-02-20T02:51:41;100305.56;;;5.14;100.00
64292;BME280;50628;51.008;13.658;2023-02-20T02:56:49;100290.25;;;5.28;100.00
64292;BME280;50628;51.008;13.658;2023-02-20T03:01:53;100267.84;;;5.29;100.00
64292;BME280;50628;51.008;13.658;2023-02-20T03:07:04;100256.75;;;5.44;100.00
64292;BME280;50628;51.008;13.658;2023-02-20T03:12:10;100248.69;;;5.50;100.00
64292;BME280;50628;51.008;13.658;2023-02-20T03:17:16;100237.81;;;5.61;100.00
64292;BME280;50628;51.008;13.658;2023-02-20T03:22:26;100243.56;;;5.66;100.00
64292;BME280;50628;51.008;13.658;2023-02-20T03:27:33;100242.81;;;5.64;100.00
64292;BME280;50628;51.008;13.658;2023-02-20T03:32:41;100240.38;;;5.61;100.00
64292;BME280;50628;51.008;13.658;2023-02-20T03:38:06;100228.06;;;5.66;100.00
64292;BME280;50628;51.008;13.658;2023-02-20T03:43:30;100223.00;;;5.64;100.00
64292;BME280;50628;51.008;13.658;2023-02-20T03:48:39;100221.41;;;5.62;100.00
64292;BME280;50628;51.008;13.658;2023-02-20T03:53:44;100214.66;;;5.59;100.00
64292;BME280;50628;51.008;13.658;2023-02-20T03:58:53;100220.56;;;5.61;100.00
64292;BME280;50628;51.008;13.658;2023-02-20T04:03:57;100227.91;;;5.69;100.00
64292;BME280;50628;51.008;13.658;2023-02-20T04:09:03;100220.66;;;5.76;100.00
64292;BME280;50628;51.008;13.658;2023-02-20T04:14:09;100219.09;;;5.73;100.00
64292;BME280;50628;51.008;13.658;2023-02-20T04:19:13;100212.75;;;5.79;100.00
64292;BME280;50628;51.008;13.658;2023-02-20T04:24:22;100183.84;;;5.88;100.00
64292;BME280;50628;51.008;13.658;2023-02-20T04:29:25;100186.38;;;5.90;100.00
64292;BME280;50628;51.008;13.658;2023-02-20T04:34:30;100188.72;;;5.94;100.00
64292;BME280;50628;51.008;13.658;2023-02-20T04:39:36;100184.28;;;5.96;100.00
64292;BME280;50628;51.008;13.658;2023-02-20T04:44:40;100181.97;;;6.07;100.00
64292;BME280;50628;51.008;13.658;2023-02-20T04:49:43;100201.22;;;6.02;100.00
64292;BME280;50628;51.008;13.658;2023-02-20T04:54:50;100201.22;;;6.02;100.00
64292;BME280;50628;51.008;13.658;2023-02-20T04:59:53;100190.31;;;6.13;100.00
64292;BME280;50628;51.008;13.658;2023-02-20T05:04:55;100182.22;;;6.19;100.00
64292;BME280;50628;51.008;13.658;2023-02-20T05:09:58;100177.22;;;6.16;100.00
64292;BME280;50628;51.008;13.658;2023-02-20T05:15:00;100170.34;;;6.31;100.00
64292;BME280;50628;51.008;13.658;2023-02-20T05:20:02;100157.19;;;6.35;100.00
64292;BME280;50628;51.008;13.658;2023-02-20T05:25:06;100164.22;;;6.47;100.00
64292;BME280;50628;51.008;13.658;2023-02-20T05:30:09;100146.69;;;6.53;100.00
64292;BME280;50628;51.008;13.658;2023-02-20T05:35:11;100126.00;;;6.53;100.00
64292;BME280;50628;51.008;13.658;2023-02-20T05:40:14;100109.75;;;6.50;100.00
64292;BME280;50628;51.008;13.658;2023-02-20T05:45:16;100110.59;;;6.51;100.00
64292;BME280;50628;51.008;13.658;2023-02-20T05:50:18;100109.59;;;6.54;100.00
64292;BME280;50628;51.008;13.658;2023-02-20T05:55:21;100105.22;;;6.54;100.00
64292;BME280;50628;51.008;13.658;2023-02-20T06:00:24;100096.72;;;6.52;100.00
64292;BME280;50628;51.008;13.658;2023-02-20T06:05:26;100099.06;;;6.57;100.00
64292;BME280;50628;51.008;13.658;2023-02-20T06:10:30;100107.75;;;6.56;100.00
64292;BME280;50628;51.008;13.658;2023-02-20T06:15:32;100110.78;;;6.62;100.00
64292;BME280;50628;51.008;13.658;2023-02-20T06:20:33;100124.56;;;6.63;100.00
64292;BME280;50628;51.008;13.658;2023-02-20T06:25:37;100113.66;;;6.58;100.00
64292;BME280;50628;51.008;13.658;2023-02-20T06:30:39;100117.81;;;6.60;100.00
64292;BME280;50628;51.008;13.658;2023-02-20T06:35:40;100096.19;;;6.61;100.00
64292;BME280;50628;51.008;13.658;2023-02-20T06:40:44;100107.75;;;6.70;100.00
64292;BME280;50628;51.008;13.658;2023-02-20T06:45:46;100117.09;;;6.72;100.00
64292;BME280;50628;51.008;13.658;2023-02-20T06:50:47;100090.13;;;6.77;100.00
64292;BME280;50628;51.008;13.658;2023-02-20T06:55:56;100089.09;;;6.65;100.00
64292;BME280;50628;51.008;13.658;2023-02-20T07:00:57;100098.88;;;6.60;100.00
64292;BME280;50628;51.008;13.658;2023-02-20T07:06:00;100081.50;;;6.62;100.00
64292;BME280;50628;51.008;13.658;2023-02-20T07:11:04;100072.47;;;6.69;100.00
64292;BME280;50628;51.008;13.658;2023-02-20T07:16:06;100062.69;;;6.74;100.00
64292;BME280;50628;51.008;13.658;2023-02-20T07:21:08;100080.97;;;6.85;100.00
64292;BME280;50628;51.008;13.658;2023-02-20T07:26:17;100067.03;;;6.88;100.00
64292;BME280;50628;51.008;13.658;2023-02-20T07:31:19;100048.00;;;6.89;100.00
64292;BME280;50628;51.008;13.658;2023-02-20T07:36:21;100040.13;;;7.05;100.00
64292;BME280;50628;51.008;13.658;2023-02-20T07:41:26;100043.91;;;7.13;100.00
64292;BME280;50628;51.008;13.658;2023-02-20T07:46:31;100037.88;;;7.13;100.00
64292;BME280;50628;51.008;13.658;2023-02-20T07:51:33;100033.66;;;7.12;100.00
64292;BME280;50628;51.008;13.658;2023-02-20T07:56:36;100021.38;;;7.43;100.00
64292;BME280;50628;51.008;13.658;2023-02-20T08:01:40;100028.78;;;7.49;100.00
64292;BME280;50628;51.008;13.658;2023-02-20T08:06:42;100038.75;;;7.55;100.00
64292;BME280;50628;51.008;13.658;2023-02-20T08:11:45;100059.47;;;7.55;100.00
64292;BME280;50628;51.008;13.658;2023-02-20T08:16:47;100011.06;;;7.55;100.00
64292;BME280;50628;51.008;13.658;2023-02-20T08:21:49;99983.53;;;7.54;100.00
64292;BME280;50628;51.008;13.658;2023-02-20T08:26:52;99992.41;;;7.77;100.00
64292;BME280;50628;51.008;13.658;2023-02-20T08:31:54;100002.78;;;7.90;100.00
64292;BME280;50628;51.008;13.658;2023-02-20T08:36:56;99998.56;;;7.89;100.00
64292;BME280;50628;51.008;13.658;2023-02-20T08:42:00;100002.31;;;8.11;100.00
64292;BME280;50628;51.008;13.658;2023-02-20T08:47:02;99981.56;;;8.23;100.00
64292;BME280;50628;51.008;13.658;2023-02-20T08:52:04;99984.91;;;8.26;100.00
64292;BME280;50628;51.008;13.658;2023-02-20T08:57:07;99988.47;;;8.50;100.00
64292;BME280;50628;51.008;13.658;2023-02-20T09:02:15;99963.75;;;8.70;100.00
64292;BME280;50628;51.008;13.658;2023-02-20T09:07:17;99951.81;;;8.80;100.00
64292;BME280;50628;51.008;13.658;2023-02-20T09:12:21;99930.50;;;8.88;100.00
64292;BME280;50628;51.008;13.658;2023-02-20T09:17:23;99928.75;;;9.13;100.00
64292;BME280;50628;51.008;13.658;2023-02-20T09:22:25;99917.69;;;9.22;100.00
64292;BME280;50628;51.008;13.658;2023-02-20T09:27:29;99916.66;;;9.24;100.00
64292;BME280;50628;51.008;13.658;2023-02-20T09:32:31;99897.34;;;9.40;100.00
64292;BME280;50628;51.008;13.658;2023-02-20T09:37:33;99894.91;;;9.49;100.00
64292;BME280;50628;51.008;13.658;2023-02-20T09:42:42;99908.75;;;9.50;100.00
64292;BME280;50628;51.008;13.658;2023-02-20T09:48:00;99898.72;;;9.57;100.00
64292;BME280;50628;51.008;13.658;2023-02-20T09:53:16;99894.00;;;9.62;100.00
64292;BME280;50628;51.008;13.658;2023-02-20T09:58:25;99888.00;;;9.72;100.00
64292;BME280;50628;51.008;13.658;2023-02-20T10:03:31;99881.06;;;9.84;100.00
64292;BME280;50628;51.008;13.658;2023-02-20T10:08:36;99874.69;;;9.88;100.00
64292;BME280;50628;51.008;13.658;2023-02-20T10:13:50;99882.50;;;10.00;100.00
64292;BME280;50628;51.008;13.658;2023-02-20T10:19:01;99866.44;;;10.17;100.00
64292;BME280;50628;51.008;13.658;2023-02-20T10:24:21;99858.19;;;10.34;97.95
64292;BME280;50628;51.008;13.658;2023-02-20T10:29:28;99895.56;;;10.45;94.70
64292;BME280;50628;51.008;13.658;2023-02-20T10:34:37;99873.69;;;10.47;93.22
64292;BME280;50628;51.008;13.658;2023-02-20T10:39:47;99848.16;;;10.41;91.36
64292;BME280;50628;51.008;13.658;2023-02-20T10:44:59;99869.19;;;10.38;88.83
64292;BME280;50628;51.008;13.658;2023-02-20T10:50:06;99867.75;;;10.56;88.46
64292;BME280;50628;51.008;13.658;2023-02-20T10:55:13;99863.28;;;10.58;87.46
64292;BME280;50628;51.008;13.658;2023-02-20T11:00:23;99838.63;;;10.63;85.16
64292;BME280;50628;51.008;13.658;2023-02-20T11:05:34;99799.72;;;10.61;82.31
64292;BME280;50628;51.008;13.658;2023-02-20T11:10:37;99854.34;;;10.72;80.88
64292;BME280;50628;51.008;13.658;2023-02-20T11:15:42;99783.50;;;10.69;78.50
64292;BME280;50628;51.008;13.658;2023-02-20T11:20:45;99782.50;;;10.81;79.68
64292;BME280;50628;51.008;13.658;2023-02-20T11:25:46;99791.22;;;10.91;77.44
64292;BME280;50628;51.008;13.658;2023-02-20T11:31:02;99771.59;;;11.08;76.76
64292;BME280;50628;51.008;13.658;2023-02-20T11:36:11;99723.78;;;11.09;76.95
64292;BME280;50628;51.008;13.658;2023-02-20T11:41:25;99712.28;;;11.12;74.72
64292;BME280;50628;51.008;13.658;2023-02-20T11:46:30;99699.44;;;11.20;74.27
64292;BME280;50628;51.008;13.658;2023-02-20T11:51:37;99698.53;;;11.31;73.25
64292;BME280;50628;51.008;13.658;2023-02-20T11:56:56;99691.13;;;11.66;69.90
64292;BME280;50628;51.008;13.658;2023-02-20T12:02:24;99720.84;;;11.85;68.74
64292;BME280;50628;51.008;13.658;2023-02-20T12:07:32;99691.97;;;11.98;68.97
64292;BME280;50628;51.008;13.658;2023-02-20T12:12:34;99689.06;;;12.01;67.25
64292;BME280;50628;51.008;13.658;2023-02-20T12:17:45;99674.25;;;12.01;67.29
64292;BME280;50628;51.008;13.658;2023-02-20T12:23:01;99662.34;;;12.38;67.28
64292;BME280;50628;51.008;13.658;2023-02-20T12:28:12;99664.69;;;12.50;66.35
64292;BME280;50628;51.008;13.658;2023-02-20T12:33:30;99642.81;;;12.71;66.65
64292;BME280;50628;51.008;13.658;2023-02-20T12:38:45;99653.25;;;12.90;66.75
64292;BME280;50628;51.008;13.658;2023-02-20T12:43:54;99632.66;;;12.77;66.57
64292;BME280;50628;51.008;13.658;2023-02-20T12:49:13;99634.06;;;12.43;67.06
64292;BME280;50628;51.008;13.658;2023-02-20T12:54:29;99633.34;;;12.50;68.33
64292;BME280;50628;51.008;13.658;2023-02-20T12:59:43;99628.53;;;12.36;69.07
64292;BME280;50628;51.008;13.658;2023-02-20T13:04:52;99618.25;;;12.25;71.08
64292;BME280;50628;51.008;13.658;2023-02-20T13:10:00;99613.00;;;12.34;73.04
64292;BME280;50628;51.008;13.658;2023-02-20T13:15:19;99597.09;;;12.47;74.78
64292;BME280;50628;51.008;13.658;2023-02-20T13:20:30;99588.69;;;12.53;76.98
64292;BME280;50628;51.008;13.658;2023-02-20T13:25:41;99573.03;;;12.44;78.44
64292;BME280;50628;51.008;13.658;2023-02-20T13:30:44;99589.81;;;12.41;80.62
64292;BME280;50628;51.008;13.658;2023-02-20T13:35:50;99577.84;;;12.48;80.89
64292;BME280;50628;51.008;13.658;2023-02-20T13:41:04;99578.28;;;12.34;81.48
64292;BME280;50628;51.008;13.658;2023-02-20T13:46:10;99570.31;;;12.36;84.50
64292;BME280;50628;51.008;13.658;2023-02-20T13:51:32;99575.66;;;12.24;85.22
64292;BME280;50628;51.008;13.658;2023-02-20T13:56:44;99552.19;;;12.24;88.43
64292;BME280;50628;51.008;13.658;2023-02-20T14:02:02;99552.03;;;12.45;88.62
64292;BME280;50628;51.008;13.658;2023-02-20T14:07:06;99543.50;;;12.43;88.32
64292;BME280;50628;51.008;13.658;2023-02-20T14:12:12;99552.16;;;12.53;88.63
64292;BME280;50628;51.008;13.658;2023-02-20T14:17:15;99558.28;;;12.62;87.94
64292;BME280;50628;51.008;13.658;2023-02-20T14:22:27;99553.91;;;13.00;83.93
64292;BME280;50628;51.008;13.658;2023-02-20T14:27:31;99547.34;;;13.33;80.42
64292;BME280;50628;51.008;13.658;2023-02-20T14:32:34;99548.59;;;13.75;77.84
64292;BME280;50628;51.008;13.658;2023-02-20T14:37:42;99562.78;;;13.27;77.85
64292;BME280;50628;51.008;13.658;2023-02-20T14:42:46;99571.34;;;13.09;80.56
64292;BME280;50628;51.008;13.658;2023-02-20T14:47:49;99585.75;;;12.76;82.97
64292;BME280;50628;51.008;13.658;2023-02-20T14:53:09;99569.31;;;12.66;87.51
64292;BME280;50628;51.008;13.658;2023-02-20T14:58:14;99567.41;;;12.48;89.79
64292;BME280;50628;51.008;13.658;2023-02-20T15:03:19;99573.06;;;12.34;92.74
64292;BME280;50628;51.008;13.658;2023-02-20T15:08:23;99589.00;;;12.31;94.20
64292;BME280;50628;51.008;13.658;2023-02-20T15:13:34;99574.16;;;12.22;95.00
64292;BME280;50628;51.008;13.658;2023-02-20T15:18:38;99564.00;;;12.09;96.74
64292;BME280;50628;51.008;13.658;2023-02-20T15:23:43;99571.28;;;12.05;97.72
64292;BME280;50628;51.008;13.658;2023-02-20T15:28:45;99583.06;;;12.09;98.49
64292;BME280;50628;51.008;13.658;2023-02-20T15:33:50;99587.34;;;12.10;98.80
64292;BME280;50628;51.008;13.658;2023-02-20T15:38:55;99585.44;;;12.12;98.28
64292;BME280;50628;51.008;13.658;2023-02-20T15:43:58;99575.81;;;12.03;100.00
64292;BME280;50628;51.008;13.658;2023-02-20T15:49:00;99568.97;;;12.02;100.00
64292;BME280;50628;51.008;13.658;2023-02-20T15:54:04;99585.53;;;11.91;100.00
64292;BME280;50628;51.008;13.658;2023-02-20T15:59:10;99589.41;;;11.87;100.00
64292;BME280;50628;51.008;13.658;2023-02-20T16:04:14;99596.91;;;11.81;100.00
64292;BME280;50628;51.008;13.658;2023-02-20T16:09:18;99595.09;;;11.72;100.00
64292;BME280;50628;51.008;13.658;2023-02-20T16:14:20;99579.88;;;11.67;100.00
64292;BME280;50628;51.008;13.658;2023-02-20T16:19:23;99575.72;;;11.55;100.00
64292;BME280;50628;51.008;13.658;2023-02-20T16:24:26;99576.97;;;11.60;100.00
64292;BME280;50628;51.008;13.658;2023-02-20T16:29:31;99594.25;;;11.52;100.00
64292;BME280;50628;51.008;13.658;2023-02-20T16:34:35;99599.31;;;11.53;100.00
64292;BME280;50628;51.008;13.658;2023-02-20T16:39:39;99582.72;;;11.54;100.00
64292;BME280;50628;51.008;13.658;2023-02-20T16:44:42;99592.19;;;11.55;100.00
64292;BME280;50628;51.008;13.658;2023-02-20T16:49:46;99588.47;;;11.48;100.00
64292;BME280;50628;51.008;13.658;2023-02-20T16:54:50;99593.41;;;11.51;100.00
64292;BME280;50628;51.008;13.658;2023-02-20T16:59:55;99602.84;;;11.42;100.00
64292;BME280;50628;51.008;13.658;2023-02-20T17:04:59;99617.09;;;11.38;100.00
64292;BME280;50628;51.008;13.658;2023-02-20T17:10:02;99607.69;;;11.47;100.00
64292;BME280;50628;51.008;13.658;2023-02-20T17:15:05;99609.75;;;11.53;100.00
64292;BME280;50628;51.008;13.658;2023-02-20T17:20:10;99618.66;;;11.51;100.00
64292;BME280;50628;51.008;13.658;2023-02-20T17:25:16;99622.06;;;11.51;100.00
64292;BME280;50628;51.008;13.658;2023-02-20T17:30:19;99629.34;;;11.47;100.00
64292;BME280;50628;51.008;13.658;2023-02-20T17:35:22;99643.78;;;11.52;100.00
64292;BME280;50628;51.008;13.658;2023-02-20T17:40:25;99630.47;;;11.55;100.00
64292;BME280;50628;51.008;13.658;2023-02-20T17:45:27;99632.66;;;11.50;100.00
64292;BME280;50628;51.008;13.658;2023-02-20T17:50:29;99638.69;;;11.50;100.00
64292;BME280;50628;51.008;13.658;2023-02-20T17:55:32;99649.66;;;11.54;100.00
64292;BME280;50628;51.008;13.658;2023-02-20T18:00:34;99643.88;;;11.50;100.00
64292;BME280;50628;51.008;13.658;2023-02-20T18:05:36;99652.81;;;11.47;100.00
64292;BME280;50628;51.008;13.658;2023-02-20T18:10:39;99649.88;;;11.41;100.00
64292;BME280;50628;51.008;13.658;2023-02-20T18:15:41;99661.50;;;11.27;100.00
64292;BME280;50628;51.008;13.658;2023-02-20T18:20:43;99667.34;;;11.19;100.00
64292;BME280;50628;51.008;13.658;2023-02-20T18:25:46;99675.09;;;10.68;100.00
64292;BME280;50628;51.008;13.658;2023-02-20T18:30:49;99697.41;;;10.28;100.00
64292;BME280;50628;51.008;13.658;2023-02-20T18:35:52;99715.88;;;9.69;100.00
64292;BME280;50628;51.008;13.658;2023-02-20T18:40:55;99732.63;;;9.42;100.00
64292;BME280;50628;51.008;13.658;2023-02-20T18:45:58;99723.78;;;9.45;100.00
64292;BME280;50628;51.008;13.658;2023-02-20T18:51:00;99721.53;;;9.51;100.00
64292;BME280;50628;51.008;13.658;2023-02-20T18:56:04;99712.69;;;9.54;100.00
64292;BME280;50628;51.008;13.658;2023-02-20T19:01:06;99711.16;;;9.74;100.00
64292;BME280;50628;51.008;13.658;2023-02-20T19:06:08;99698.03;;;9.87;100.00
64292;BME280;50628;51.008;13.658;2023-02-20T19:11:11;99694.13;;;9.92;100.00
64292;BME280;50628;51.008;13.658;2023-02-20T19:16:13;99683.72;;;9.92;100.00
64292;BME280;50628;51.008;13.658;2023-02-20T19:21:15;99674.84;;;9.95;100.00
64292;BME280;50628;51.008;13.658;2023-02-20T19:26:18;99673.09;;;9.84;100.00
64292;BME280;50628;51.008;13.658;2023-02-20T19:31:20;99664.13;;;9.88;100.00
64292;BME280;50628;51.008;13.658;2023-02-20T19:36:22;99676.63;;;9.94;100.00
64292;BME280;50628;51.008;13.658;2023-02-20T19:41:25;99684.06;;;9.99;100.00
64292;BME280;50628;51.008;13.658;2023-02-20T19:46:27;99673.88;;;10.07;100.00
64292;BME280;50628;51.008;13.658;2023-02-20T19:51:29;99679.19;;;10.17;100.00
64292;BME280;50628;51.008;13.658;2023-02-20T19:56:32;99654.41;;;10.02;100.00
64292;BME280;50628;51.008;13.658;2023-02-20T20:01:34;99646.69;;;10.00;100.00
64292;BME280;50628;51.008;13.658;2023-02-20T20:06:36;99643.50;;;10.08;100.00
64292;BME280;50628;51.008;13.658;2023-02-20T20:11:39;99657.34;;;9.97;100.00
64292;BME280;50628;51.008;13.658;2023-02-20T20:16:41;99648.03;;;9.94;100.00
64292;BME280;50628;51.008;13.658;2023-02-20T20:21:43;99646.84;;;9.99;100.00
64292;BME280;50628;51.008;13.658;2023-02-20T20:26:46;99649.91;;;10.04;100.00
64292;BME280;50628;51.008;13.658;2023-02-20T20:31:48;99650.72;;;10.04;100.00
64292;BME280;50628;51.008;13.658;2023-02-20T20:36:50;99656.44;;;9.98;100.00
64292;BME280;50628;51.008;13.658;2023-02-20T20:41:53;99657.50;;;9.84;100.00
64292;BME280;50628;51.008;13.658;2023-02-20T20:46:55;99660.34;;;9.81;100.00
64292;BME280;50628;51.008;13.658;2023-02-20T20:51:57;99653.28;;;9.61;100.00
64292;BME280;50628;51.008;13.658;2023-02-20T20:57:00;99651.28;;;9.53;100.00
64292;BME280;50628;51.008;13.658;2023-02-20T21:02:02;99647.88;;;9.52;100.00
64292;BME280;50628;51.008;13.658;2023-02-20T21:07:04;99637.81;;;9.37;100.00
64292;BME280;50628;51.008;13.658;2023-02-20T21:12:08;99641.59;;;9.44;100.00
64292;BME280;50628;51.008;13.658;2023-02-20T21:17:11;99637.47;;;9.41;100.00
64292;BME280;50628;51.008;13.658;2023-02-20T21:22:13;99632.63;;;9.48;100.00
64292;BME280;50628;51.008;13.658;2023-02-20T21:27:16;99650.56;;;9.51;100.00
64292;BME280;50628;51.008;13.658;2023-02-20T21:32:18;99651.41;;;9.51;100.00
64292;BME280;50628;51.008;13.658;2023-02-20T21:37:20;99644.88;;;9.57;100.00
64292;BME280;50628;51.008;13.658;2023-02-20T21:42:23;99660.59;;;9.67;100.00
64292;BME280;50628;51.008;13.658;2023-02-20T21:47:43;99650.56;;;9.62;100.00
64292;BME280;50628;51.008;13.658;2023-02-20T21:52:45;99651.72;;;9.69;100.00
64292;BME280;50628;51.008;13.658;2023-02-20T21:57:49;99649.63;;;9.63;100.00
64292;BME280;50628;51.008;13.658;2023-02-20T22:02:56;99642.75;;;9.62;100.00
64292;BME280;50628;51.008;13.658;2023-02-20T22:07:56;99654.31;;;9.69;100.00
64292;BME280;50628;51.008;13.658;2023-02-20T22:13:17;99632.38;;;9.73;100.00
64292;BME280;50628;51.008;13.658;2023-02-20T22:18:36;99651.03;;;9.67;100.00
64292;BME280;50628;51.008;13.658;2023-02-20T22:23:56;99639.22;;;9.63;100.00
64292;BME280;50628;51.008;13.658;2023-02-20T22:29:16;99642.91;;;9.61;100.00
64292;BME280;50628;51.008;13.658;2023-02-20T22:34:36;99646.19;;;9.74;100.00
64292;BME280;50628;51.008;13.658;2023-02-20T22:39:55;99638.41;;;9.63;100.00
64292;BME280;50628;51.008;13.658;2023-02-20T22:45:17;99631.69;;;9.60;100.00
64292;BME280;50628;51.008;13.658;2023-02-20T22:50:36;99617.03;;;9.59;100.00
64292;BME280;50628;51.008;13.658;2023-02-20T22:55:55;99609.13;;;9.61;100.00
64292;BME280;50628;51.008;13.658;2023-02-20T23:01:16;99614.41;;;9.59;100.00
64292;BME280;50628;51.008;13.658;2023-02-20T23:06:36;99609.22;;;9.59;100.00
64292;BME280;50628;51.008;13.658;2023-02-20T23:11:55;99627.91;;;9.53;100.00
64292;BME280;50628;51.008;13.658;2023-02-20T23:17:16;99623.28;;;9.57;100.00
64292;BME280;50628;51.008;13.658;2023-02-20T23:22:36;99641.34;;;9.47;100.00
64292;BME280;50628;51.008;13.658;2023-02-20T23:27:55;99624.84;;;9.37;100.00
64292;BME280;50628;51.008;13.658;2023-02-20T23:33:15;99623.06;;;9.37;100.00
64292;BME280;50628;51.008;13.658;2023-02-20T23:38:35;99638.66;;;9.26;100.00
64292;BME280;50628;51.008;13.658;2023-02-20T23:43:54;99635.09;;;9.27;100.00
64292;BME280;50628;51.008;13.658;2023-02-20T23:49:15;99611.63;;;9.28;100.00
64292;BME280;50628;51.008;13.658;2023-02-20T23:54:34;99617.06;;;9.25;100.00
64292;BME280;50628;51.008;13.658;2023-02-20T23:59:54;99609.03;;;9.28;100.00
